Richard Mitchell

Olheiro-Chefe - Chesterfield
5 Dez 2027
Domingo
Processo

Personalidade

Adaptabilidade (8) Ambição (6) Controvérsia (16) Lealdade (4) Pressão (7) Profissionalismo (17) Espírito Esportivo (14) Temperamento (19)

Perfil

Estilo de Treinamento Democrático
Licença Continental B
Determinação 10
Gestão de Pessoas 10
Motivação 3
Disciplina 8
Satisfação no Trabalho
100%
Fadiga
0%
Função Olheiro-Chefe
Salário 47.9K p/s
Contrato 14.03.2029

Desempenho

Comportamento Bom
Eficácia do Treinamento
33%
Desenvolvimento do Jogador
40%
Prevenção de Lesões
55%
Implementação Tática
15%

Monitorando agora

125
Jogador Clube Status Habilidade Confiança Observado Última observação Último voto
James Kinyanjui AFC Leopards Ativo 77 / 78 40% 4 31.08.2027 -
Ihojan Pérez Cerro Largo Ativo 89 / 99 40% 1 31.08.2027 -
Shariff Musa Gor Mahia Ativo 80 / 94 40% 1 30.08.2027 -
Brian Orosco Godoy Cruz Negociando 126 / 127 40% 1 30.08.2027 -
Juan Rocca Gimnasia y Tiro Ativo 107 / 109 40% 3 29.08.2027 -
Maurice Malone Minnesota United FC Ativo 133 / 126 40% 2 29.08.2027 -
Agustín Tejera Chikhura Ativo 88 / 93 40% 1 29.08.2027 -
Renato Alexandrino Oriental Ativo 93 / 105 40% 3 27.08.2027 -
Emiliano García Uruguay Montevideo Ativo 107 / 103 40% 1 27.08.2027 -
Hassan Beja AFC Leopards Ativo 93 / 88 40% 4 26.08.2027 -
Juan Mendoza Güemes Ativo 116 / 106 40% 3 24.08.2027 -
Josephat Lopaga Kakamega Homeboyz Ativo 87 / 100 40% 3 24.08.2027 -
Sebastián Ferreira Olimpia Ativo 119 / 112 40% 1 24.08.2027 -
Tomás Fernández Aldosivi Ativo 111 / 121 40% 2 21.08.2027 -
Luca Langoni New England Revolution Ativo 125 / 124 40% 1 21.08.2027 -
Johnmark Atule Shooting Stars Ativo 78 / 94 40% 1 21.08.2027 -
Alejo Cruz Dinamo Tbilisi Ativo 123 / 130 40% 2 18.08.2027 -
Andrés Amaya Fortaleza CEIF Ativo 126 / 123 40% 1 18.08.2027 -
Nicolás Heiz Maipú Ativo 108 / 98 40% 2 16.08.2027 -
Facundo Krüger Temperley Ativo 110 / 109 40% 1 16.08.2027 -
Cristian Rivas Bogota Ativo 92 / 97 40% 3 15.08.2027 -
Luca Franco Arsenal Ativo 110 / 114 40% 4 15.08.2027 -
Muyiwa Balogun Shooting Stars Ativo 87 / 81 40% 1 15.08.2027 -
Kevin Isa Luna Central Norte Ativo 106 / 104 40% 2 13.08.2027 -
Samuel Ayanrinde Kenya Police Ativo 83 / 82 40% 1 13.08.2027 -
Alao Dabani Plateau United Ativo 97 / 82 40% 1 11.08.2027 -
Matheus Machado Parana Ativo 102 / 109 40% 1 11.08.2027 -
Brian Farioli Estudiantes Ativo 118 / 114 40% 2 09.08.2027 -
Ben Perry Colchester United Ativo 109 / 106 40% 1 09.08.2027 -
Sergio Soteldo Llaneros Ativo 77 / 85 40% 1 08.08.2027 -
Federico Álvarez Atlanta Ativo 115 / 113 40% 1 07.08.2027 -
Jayden Luker Burton Albion Ativo 91 / 104 40% 1 07.08.2027 -
Jordan Graham Crawley Town Ativo 121 / 118 40% 1 07.08.2027 -
Simone Ianesi Pianese Ativo 97 / 111 40% 3 05.08.2027 -
Adrien Thibaut Cheltenham Town Ativo 88 / 97 40% 2 05.08.2027 -
Emmanuel Ndubueze Shooting Stars Ativo 93 / 96 40% 1 05.08.2027 -
Pelly-Ruddock Mpanzu Cambridge United Ativo 120 / 104 40% 1 05.08.2027 -
Isaac England Shrewsbury Town Ativo 89 / 97 40% 1 05.08.2027 -
Saidu Salisu Barau Ativo 74 / 97 40% 2 03.08.2027 -
Joseph Atule Barau Ativo 83 / 85 40% 2 03.08.2027 -
Luke Hannant Oldham Athletic Ativo 90 / 101 40% 1 03.08.2027 -
Martín Campos Ferro Carril Oeste Ativo 120 / 115 40% 1 03.08.2027 -
George Byers Port Vale Ativo 107 / 120 40% 1 03.08.2027 -
Shaq Forde Bristol Rovers Ativo 93 / 97 40% 1 03.08.2027 -
Millar Matthews-Lewis Burton Albion Ativo 93 / 92 40% 4 02.08.2027 -
Ibourahima Baldé Giugliano Ativo 108 / 98 40% 1 02.08.2027 -
Kayden Jackson Bradford City Ativo 101 / 102 40% 1 01.08.2027 -
David Barbona Twente Ativo 119 / 124 40% 1 01.08.2027 -
Olasunkanmi Quadri Enyimba Ativo 90 / 83 40% 1 01.08.2027 -
Tornike Chakvetadze Zugdidi Ativo 96 / 102 40% 1 31.07.2027 -
Ayom Majok Zabbar St. Patrick Ativo 84 / 95 40% 2 30.07.2027 -
Brian Iloski Fleetwood Town Ativo 107 / 91 40% 4 30.07.2027 -
Romeo Giovannini Vis Pesaro Ativo 103 / 105 40% 2 30.07.2027 -
Tom Barkhuizen Barrow AFC Ativo 91 / 93 40% 1 30.07.2027 -
James Tilley Wycombe Wanderers Ativo 110 / 110 40% 1 30.07.2027 -
Jaden Williams Colchester United Ativo 90 / 92 40% 1 30.07.2027 -
Luís Mota Zabbar St. Patrick Ativo 90 / 100 40% 4 29.07.2027 -
Dani Ángel Oldham Athletic Ativo 102 / 97 40% 1 29.07.2027 -
Connor Mahoney Barrow AFC Ativo 91 / 98 40% 1 28.07.2027 -
Usman Fahad Kano Pillars Ativo 96 / 91 40% 1 28.07.2027 -
Dylan Cabral Arsenal Ativo 104 / 99 40% 1 26.07.2027 -
Santiago Apa All Boys Ativo 107 / 103 40% 1 25.07.2027 -
Jacopo Desogus AlbinoLeffe Ativo 113 / 100 40% 2 24.07.2027 -
Erik Bodencer Central Norte Ativo 117 / 117 40% 1 23.07.2027 -
Ricardo Dinanga Shrewsbury Town Ativo 95 / 88 40% 1 23.07.2027 -
Bismark Asante Ashanti Gold Ativo 91 / 90 40% 7 22.07.2027 -
Diamanka Senghor Mosta Ativo 96 / 99 40% 1 22.07.2027 -
Pedro Cejas Zabbar St. Patrick Ativo 95 / 90 40% 1 20.07.2027 -
Alfred Emoni Bandari Ativo 74 / 88 40% 1 20.07.2027 -
Thiago Calone All Boys Ativo 107 / 114 40% 1 18.07.2027 -
Musa Masika Mathare United Ativo 90 / 76 40% 1 18.07.2027 -
Fernando Silva Leyton Orient Ativo 88 / 98 40% 1 15.07.2027 -
Said Aliev Rotor Ativo 104 / 98 40% 1 13.07.2027 -
Kenan Dervišagić Floriana Ativo 107 / 101 40% 2 12.07.2027 -
Patrick Schmidt Tarxien Rainbows Ativo 115 / 111 40% 1 12.07.2027 -
Layton Love Gillingham Ativo 83 / 87 40% 1 11.07.2027 -
Vinicius Baiano Naxxar Lions Ativo 93 / 93 40% 1 11.07.2027 -
Santiago Herrera Estudiantes de Caracas Ativo 96 / 89 40% 1 10.07.2027 -
Auwalu Ali Malam Kano Pillars Ativo 83 / 88 40% 1 10.07.2027 -
Franklin Sasere Birkirkara Ativo 92 / 89 40% 4 09.07.2027 -
Shilow Tracey Bristol Rovers Ativo 95 / 89 40% 5 09.07.2027 -
Sebastián Marfort Racing Ativo 107 / 108 40% 2 09.07.2027 -
Sebastián Parada San Luis Ativo 108 / 104 40% 1 08.07.2027 -
Idris Kanu Barnet Ativo 100 / 94 40% 2 07.07.2027 -
Alen Kurtalić Floriana Ativo 110 / 94 40% 1 07.07.2027 -
Kamran Aliev SKA Khabarovsk Ativo 109 / 100 40% 2 05.07.2027 -
Leonardo Bellini Pianese Ativo 98 / 100 40% 3 05.07.2027 -
Antoni Sarcevic Bradford City Perdido 111 / 108 65% 1 05.07.2027 Aprovar
Tyler Walton Bromley Ativo 98 / 88 40% 1 05.07.2027 -
Migran Ageyan Ufa Ativo 96 / 91 40% 2 03.07.2027 -
Aleksej Golijanin Sokol Ativo 80 / 98 40% 1 30.06.2027 -
Nicolás Cordero Aldosivi Ativo 105 / 107 40% 1 27.06.2027 -
Víctor Barrionuevo Gillingham Ativo 102 / 102 40% 1 26.06.2027 -
Belajdi Pusi Fakel Ativo 106 / 102 40% 1 26.06.2027 -
Harvey Saunders Tranmere Rovers Ativo 88 / 82 40% 1 24.06.2027 -
Jonathan Filipe Molodechno Ativo 95 / 80 40% 1 24.06.2027 -
Ryan Graydon Salford City Ativo 108 / 107 40% 1 24.06.2027 -
Beryly Lubala Barrow AFC Rejeitado 97 / 98 40% 2 21.06.2027 Mais informações
Bradley Ihionvien Peterborough United Ativo 79 / 84 40% 1 16.06.2027 -
Destiny Efosa Egharevba Picerno Ativo 101 / 99 40% 1 13.06.2027 -
Joshua Kayode Casertana Ativo 90 / 88 40% 1 10.06.2027 -
Javier Martínez Almirante Brown Ativo 104 / 105 40% 1 09.06.2027 -
Jacobo Escobar Javor-Matis Ativo 98 / 88 40% 1 09.06.2027 -
Giancarlo Mosta Ativo 93 / 82 40% 2 08.06.2027 -
Patryk Szwedzik Ruch Ativo 94 / 95 40% 1 03.06.2027 -
Alexandr Saplinov Volga Ativo 110 / 103 40% 2 01.06.2027 -
Chinonso Offor Baltika Ativo 105 / 98 40% 1 01.06.2027 -
Sebastian Soto MC El Bayadh Ativo 100 / 84 40% 1 30.01.2027 -
Louis Appéré Cambridge United Rejeitado 89 / 94 40% 3 26.01.2027 Rejeitar
Wandile Duba Bloemfontein Celtic Rejeitado 91 / 111 40% 1 26.01.2027 Mais informações
Kane Drummond Oldham Athletic Rejeitado 102 / 84 40% 3 25.01.2027 Observar
Abraham Acquah Liberty Professionals Rejeitado 93 / 114 40% 1 25.01.2027 Mais informações
Luan Santos Inter Allies Ativo 86 / 92 40% 1 24.01.2027 -
Ilja Safronov Rotor Ativo 100 / 99 40% 2 22.01.2027 -
Ged Garner Newport County Ativo 89 / 91 40% 1 21.01.2027 -
Daniil Kondrakov KDV Tomsk Ativo 100 / 84 40% 1 20.01.2027 -
Saaka Dauda Asante Kotoko Ativo 79 / 95 40% 2 18.01.2027 -
Sam Nombe Milton Keynes Dons Ativo 116 / 103 40% 2 16.01.2027 -
Martin Petkov Botev Vratsa Ativo 113 / 93 40% 1 10.01.2027 -
Gleyfer Medina Odd Ativo 86 / 98 40% 1 10.01.2027 -
Fortune Bassey MC El Bayadh Ativo 87 / 97 40% 1 09.01.2027 -
Denis Rubanov Dinamo Stavropol Ativo 84 / 91 40% 1 08.01.2027 -
Jonathan Okoronkwo Torpedo Moscow Ativo 105 / 107 40% 1 06.01.2027 -
Solly Khunyedi Black Aces Ativo 111 / 88 40% 1 06.01.2027 -
Yeangel Montero Naxxar Lions Ativo 103 / 101 40% 1 05.01.2027 -